createdAt,value
2018-12-24T10:32:43.695Z,2.40
2018-12-24T10:35:11.741Z,2.37
2018-12-24T10:37:39.913Z,3.20
2018-12-24T10:40:11.677Z,2.80
2018-12-24T10:42:39.789Z,3.20
2018-12-24T10:45:16.241Z,3.20
2018-12-24T10:47:37.809Z,2.70
2018-12-24T10:50:06.083Z,2.90
2018-12-24T10:52:34.177Z,3.10
2018-12-24T10:55:02.256Z,3.03
2018-12-24T10:57:30.221Z,3.40
2018-12-24T10:59:58.299Z,2.50
2018-12-24T11:02:26.200Z,2.50
2018-12-24T11:04:54.390Z,2.30
2018-12-24T11:07:22.806Z,2.73
2018-12-24T11:09:52.638Z,2.50
2018-12-24T11:12:21.395Z,2.60
2018-12-24T11:14:50.407Z,2.60
2018-12-24T11:17:19.195Z,2.93
2018-12-24T11:19:47.989Z,2.93
2018-12-24T11:22:22.823Z,2.73
2018-12-24T11:24:51.495Z,2.43
2018-12-24T11:30:20.001Z,2.10
2018-12-24T11:32:48.697Z,2.20
2018-12-24T11:35:16.951Z,2.47
2018-12-24T11:37:45.438Z,2.33
2018-12-24T11:40:14.082Z,2.20
2018-12-24T11:42:42.151Z,2.47
2018-12-24T11:45:10.494Z,2.97
2018-12-24T11:47:38.916Z,2.90
2018-12-24T11:50:07.226Z,2.47
2018-12-24T11:52:35.619Z,2.97
2018-12-24T11:55:04.290Z,2.87
2018-12-24T11:57:32.734Z,2.83
2018-12-24T12:00:01.132Z,2.23
2018-12-24T12:02:29.685Z,3.43
2018-12-24T12:04:58.015Z,2.60
2018-12-24T12:07:25.867Z,4.13
2018-12-24T12:09:53.767Z,3.70
2018-12-24T12:12:21.734Z,4.30
2018-12-24T12:14:49.594Z,3.40
2018-12-24T12:17:17.540Z,3.00
2018-12-24T12:19:45.493Z,2.57
2018-12-24T12:22:13.392Z,3.37
2018-12-24T12:24:41.858Z,3.07
2018-12-24T12:27:10.758Z,3.47
2018-12-24T12:29:39.228Z,3.40
2018-12-24T12:32:07.816Z,3.20
2018-12-24T12:34:36.586Z,3.20
2018-12-24T12:37:05.265Z,3.30
2018-12-24T12:39:33.975Z,3.07
2018-12-24T12:42:02.751Z,3.20
2018-12-24T12:44:31.232Z,3.47
2018-12-24T12:46:59.572Z,3.37
2018-12-24T12:49:28.003Z,2.90
2018-12-24T12:51:56.476Z,2.80
2018-12-24T12:54:25.214Z,2.50
2018-12-24T12:56:53.716Z,2.93
2018-12-24T12:59:22.530Z,2.80
2018-12-24T13:01:51.318Z,2.80
2018-12-24T13:04:19.812Z,3.03
2018-12-24T13:06:48.358Z,2.73
2018-12-24T13:09:17.270Z,2.90
2018-12-24T13:11:46.038Z,2.63
2018-12-24T13:14:14.557Z,2.50
2018-12-24T13:16:43.131Z,2.63
2018-12-24T13:19:11.683Z,3.33
2018-12-24T13:21:39.580Z,3.40
2018-12-24T13:24:08.045Z,3.03
2018-12-24T13:26:36.333Z,3.20
2018-12-24T13:29:04.722Z,2.90
2018-12-24T13:31:33.401Z,3.10
2018-12-24T13:34:02.082Z,3.00
2018-12-24T13:36:30.483Z,3.13
2018-12-24T13:38:59.043Z,3.30
2018-12-24T13:41:27.423Z,3.20
2018-12-24T13:43:55.595Z,2.87
2018-12-24T13:46:24.077Z,3.40
2018-12-24T13:48:52.455Z,3.30
2018-12-24T13:51:20.931Z,3.60
2018-12-24T13:53:49.719Z,3.70
2018-12-24T13:56:18.913Z,3.43
2018-12-24T13:58:47.809Z,3.33
2018-12-24T14:01:16.873Z,3.30
2018-12-24T14:03:45.780Z,3.80
2018-12-24T14:06:14.193Z,3.87
2018-12-24T14:08:42.644Z,3.13
2018-12-24T14:11:11.207Z,3.20
2018-12-24T14:13:39.903Z,4.03
2018-12-24T14:16:16.532Z,3.17
2018-12-24T14:18:40.667Z,3.13
2018-12-24T14:21:09.765Z,3.83
2018-12-24T14:23:38.395Z,3.53
2018-12-24T14:26:06.444Z,3.63
2018-12-24T14:28:34.326Z,3.10
2018-12-24T14:31:02.232Z,3.60
2018-12-24T14:33:30.205Z,3.90
2018-12-24T14:35:58.726Z,3.90
2018-12-24T14:38:29.018Z,3.50
2018-12-24T14:40:57.702Z,3.73
2018-12-24T14:43:26.593Z,3.80
2018-12-24T14:45:55.743Z,3.77
2018-12-24T14:48:24.682Z,3.63
2018-12-24T14:50:53.975Z,3.80
2018-12-24T14:53:22.560Z,4.37
2018-12-24T14:55:51.042Z,4.03
2018-12-24T14:58:19.996Z,3.93
2018-12-24T15:00:48.616Z,3.83
2018-12-24T15:03:17.403Z,4.50
2018-12-24T15:05:46.083Z,3.30
2018-12-24T15:08:14.782Z,3.83
2018-12-24T15:10:43.692Z,3.53
2018-12-24T15:13:12.531Z,4.17
2018-12-24T15:15:40.367Z,3.70
2018-12-24T15:18:08.260Z,3.57
2018-12-24T15:20:36.111Z,4.87
2018-12-24T15:23:03.943Z,4.37
2018-12-24T15:25:31.776Z,4.50
2018-12-24T15:27:59.619Z,4.07
2018-12-24T15:30:27.635Z,4.00
2018-12-24T15:32:55.435Z,3.53
2018-12-24T15:35:23.192Z,2.97
2018-12-24T15:37:51.007Z,3.70
2018-12-24T15:40:19.281Z,3.60
2018-12-24T15:42:47.848Z,2.77
2018-12-24T15:45:16.241Z,3.20
2018-12-24T15:47:44.726Z,3.07
2018-12-24T15:50:12.899Z,3.43
2018-12-24T15:52:41.271Z,3.83
2018-12-24T15:55:09.650Z,4.00
2018-12-24T15:57:37.869Z,3.37
2018-12-24T16:00:07.457Z,3.13
2018-12-24T16:02:35.918Z,3.40
2018-12-24T16:05:04.518Z,3.83
2018-12-24T16:07:32.882Z,4.03
2018-12-24T16:10:01.451Z,6.67
2018-12-24T16:12:30.138Z,4.70
2018-12-24T16:14:58.927Z,4.43
2018-12-24T16:17:27.601Z,3.83
2018-12-24T16:19:56.295Z,3.43
2018-12-24T16:22:24.981Z,2.90
2018-12-24T16:27:52.992Z,3.53
2018-12-24T16:30:20.860Z,3.33
2018-12-24T16:32:49.134Z,3.27
2018-12-24T16:35:17.590Z,3.57
2018-12-24T16:37:45.971Z,3.20
2018-12-24T16:40:14.549Z,4.23
2018-12-24T16:42:43.330Z,3.70
2018-12-24T16:45:12.026Z,4.07
2018-12-24T16:47:40.738Z,3.93
2018-12-24T16:50:09.492Z,4.10
2018-12-24T16:52:37.784Z,3.37
2018-12-24T16:55:06.029Z,3.63
2018-12-24T16:57:34.220Z,3.00
2018-12-24T17:00:02.385Z,3.77
2018-12-24T17:02:30.395Z,3.77
2018-12-24T17:04:58.736Z,3.43
2018-12-24T17:07:26.986Z,4.00
2018-12-24T17:09:55.186Z,3.50
2018-12-24T17:12:23.358Z,3.60
2018-12-24T17:14:51.361Z,3.50
2018-12-24T17:17:19.323Z,3.40
2018-12-24T17:19:47.306Z,3.97
2018-12-24T17:22:15.299Z,3.97
2018-12-24T17:24:43.320Z,3.50
2018-12-24T17:27:11.365Z,3.80
2018-12-24T17:29:39.475Z,3.57
2018-12-24T17:32:07.413Z,3.60
2018-12-24T17:34:35.532Z,4.00
2018-12-24T17:37:06.993Z,4.57
2018-12-24T17:39:36.120Z,6.17
2018-12-24T17:42:04.115Z,8.80
2018-12-24T17:44:32.057Z,4.60
2018-12-24T17:47:00.081Z,4.77
2018-12-24T17:49:28.134Z,5.70
2018-12-24T17:51:56.314Z,4.60
2018-12-24T17:54:24.471Z,4.53
2018-12-24T17:56:52.726Z,5.23
2018-12-24T17:59:20.898Z,4.50
2018-12-24T18:01:49.277Z,4.90
2018-12-24T18:04:17.456Z,5.73
2018-12-24T18:06:45.465Z,4.60
2018-12-24T18:09:13.487Z,6.17
2018-12-24T18:11:41.659Z,5.90
2018-12-24T18:14:09.661Z,6.43
2018-12-24T18:16:37.613Z,4.43
2018-12-24T18:19:08.509Z,5.13
2018-12-24T18:21:36.804Z,5.63
2018-12-24T18:24:04.749Z,6.50
2018-12-24T18:26:32.623Z,5.47
2018-12-24T18:29:00.530Z,7.90
2018-12-24T18:31:28.379Z,6.70
2018-12-24T18:33:56.235Z,7.43
2018-12-24T18:36:24.014Z,6.47
2018-12-24T18:38:52.412Z,6.03
2018-12-24T18:41:21.137Z,5.80
2018-12-24T18:43:49.872Z,5.33
2018-12-24T18:46:18.548Z,4.87
2018-12-24T18:48:47.039Z,5.40
2018-12-24T18:51:15.416Z,6.20
2018-12-24T18:53:43.284Z,5.00
2018-12-24T18:56:11.106Z,6.00
2018-12-24T18:58:38.872Z,6.80
2018-12-24T19:01:06.730Z,6.33
2018-12-24T19:03:34.931Z,6.30
2018-12-24T19:06:02.796Z,6.87
2018-12-24T19:08:30.647Z,5.27
2018-12-24T19:13:59.988Z,5.20
2018-12-24T19:16:27.951Z,5.40
2018-12-24T19:18:55.942Z,5.43
2018-12-24T19:21:24.080Z,5.07
2018-12-24T19:23:52.006Z,5.50
2018-12-24T19:26:20.008Z,5.30
2018-12-24T19:28:47.853Z,5.77
2018-12-24T19:31:15.711Z,6.00
2018-12-24T19:33:43.579Z,6.37
2018-12-24T19:36:11.565Z,6.13
2018-12-24T19:38:39.533Z,6.03
2018-12-24T19:41:07.559Z,6.83
2018-12-24T19:43:35.449Z,5.70
2018-12-24T19:46:03.473Z,6.37
2018-12-24T19:48:31.428Z,6.33
2018-12-24T19:50:59.323Z,6.10
2018-12-24T19:53:27.188Z,7.27
2018-12-24T19:55:55.078Z,6.33
2018-12-24T19:58:23.129Z,6.10
2018-12-24T20:00:50.979Z,6.10
2018-12-24T20:04:54.014Z,6.87
2018-12-24T20:07:21.864Z,6.30
2018-12-24T20:09:49.900Z,8.27
2018-12-24T20:12:17.906Z,7.40
2018-12-24T20:14:45.938Z,7.90
2018-12-24T20:17:14.132Z,7.13
2018-12-24T20:19:42.122Z,7.30
2018-12-24T20:22:10.195Z,7.20
2018-12-24T20:24:38.277Z,7.17
2018-12-24T20:27:06.212Z,6.93
2018-12-24T20:29:34.110Z,7.03
2018-12-24T20:32:02.913Z,7.03
2018-12-24T20:34:31.070Z,6.70
2018-12-24T20:36:58.904Z,6.67
2018-12-24T20:39:26.873Z,6.53
2018-12-24T20:41:54.744Z,6.00
2018-12-24T20:44:22.662Z,7.63
2018-12-24T20:46:50.447Z,6.30
2018-12-24T20:49:18.313Z,6.30
2018-12-24T20:51:46.236Z,5.83
2018-12-24T20:54:14.148Z,5.27
2018-12-24T20:56:42.079Z,6.67
2018-12-24T20:59:10.250Z,5.53
2018-12-24T21:01:48.262Z,5.77
2018-12-24T21:16:45.898Z,5.73
2018-12-24T21:24:42.186Z,5.90
2018-12-24T22:23:50.029Z,4.40
2018-12-24T22:26:18.572Z,4.83
2018-12-24T22:28:46.315Z,4.80
2018-12-24T23:59:10.932Z,3.70
